Time;durP1;ratioP1;P1;durP2;ratioP2;P2;SDS_P1;SDS_P2;PMS_P1;PMS_P2;Temp;Humidity;BMP_temperature;BMP_pressure;BME280_temperature;BME280_humidity;BME280_pressure;Samples;Min_cycle;Max_cycle;Signal;HPM_P1;HPM_P2
2024/04/14 00:01:45;;;;;;;7.03;4.28;;;;;;;;;;5449534;26;19999;-66
2024/04/14 00:04:13;;;;;;;4.40;3.72;;;;;;;;;;5439296;26;20460;-66
2024/04/14 00:06:46;;;;;;;4.30;3.30;;;;;;;;;;5444401;26;20493;-67
2024/04/14 00:09:13;;;;;;;3.72;3.33;;;;;;;;;;5440082;26;20079;-67
2024/04/14 00:11:43;;;;;;;5.35;3.30;;;;;;;;;;5448983;26;19998;-66
2024/04/14 00:14:12;;;;;;;5.18;3.30;;;;;;;;;;5447699;26;20018;-66
2024/04/14 00:16:43;;;;;;;4.93;3.03;;;;;;;;;;5448298;26;19999;-66
2024/04/14 00:19:10;;;;;;;4.35;2.92;;;;;;;;;;5440633;26;20014;-67
2024/04/14 00:21:41;;;;;;;4.68;3.17;;;;;;;;;;5449405;26;20022;-66
2024/04/14 00:24:12;;;;;;;5.57;3.42;;;;;;;;;;5446046;26;20008;-66
2024/04/14 00:26:42;;;;;;;4.30;3.17;;;;;;;;;;5431648;26;20440;-66
2024/04/14 00:29:10;;;;;;;4.20;3.42;;;;;;;;;;5448624;26;20572;-66
2024/04/14 00:31:40;;;;;;;3.85;3.38;;;;;;;;;;5448703;26;19998;-67
2024/04/14 00:34:10;;;;;;;3.95;2.90;;;;;;;;;;5447457;26;20014;-66
2024/04/14 00:36:40;;;;;;;4.00;2.75;;;;;;;;;;5448950;26;20011;-67
2024/04/14 00:39:12;;;;;;;7.20;4.13;;;;;;;;;;5448148;26;20006;-67
2024/04/14 00:41:42;;;;;;;6.70;4.30;;;;;;;;;;5440729;26;20559;-65
2024/04/14 00:44:09;;;;;;;9.90;4.28;;;;;;;;;;5447934;26;20316;-65
2024/04/14 00:46:40;;;;;;;5.43;3.25;;;;;;;;;;5448558;26;19999;-66
2024/04/14 00:49:08;;;;;;;5.00;3.88;;;;;;;;;;5437314;26;20011;-66
2024/04/14 00:51:39;;;;;;;5.30;3.60;;;;;;;;;;5443185;26;20027;-67
2024/04/14 00:54:06;;;;;;;4.50;3.65;;;;;;;;;;5445486;26;20015;-66
2024/04/14 00:56:39;;;;;;;5.53;4.20;;;;;;;;;;5447884;26;20033;-66
2024/04/14 00:59:06;;;;;;;4.57;3.67;;;;;;;;;;5448897;26;20448;-66
2024/04/14 01:01:37;;;;;;;4.03;3.20;;;;;;;;;;5449283;26;19998;-66
2024/04/14 01:04:06;;;;;;;5.03;3.22;;;;;;;;;;5447205;26;20035;-66
2024/04/14 01:06:37;;;;;;;8.23;5.20;;;;;;;;;;5440911;26;20021;-65
2024/04/14 01:09:04;;;;;;;5.63;4.00;;;;;;;;;;5441718;26;20017;-66
2024/04/14 01:11:34;;;;;;;6.72;3.95;;;;;;;;;;5445063;26;20014;-65
2024/04/14 01:14:06;;;;;;;6.38;3.63;;;;;;;;;;5448702;26;20014;-67
2024/04/14 01:16:36;;;;;;;6.70;4.13;;;;;;;;;;5447251;26;20444;-66
2024/04/14 01:19:04;;;;;;;12.82;6.72;;;;;;;;;;5447605;26;20003;-65
2024/04/14 01:21:35;;;;;;;12.85;7.13;;;;;;;;;;5447165;26;20002;-65
2024/04/14 01:24:03;;;;;;;11.98;7.03;;;;;;;;;;5448399;26;20043;-66
2024/04/14 01:26:35;;;;;;;8.80;5.25;;;;;;;;;;5446853;26;20003;-67
2024/04/14 01:29:03;;;;;;;10.65;4.53;;;;;;;;;;5437683;26;20554;-66
2024/04/14 01:31:33;;;;;;;7.63;4.57;;;;;;;;;;5444192;26;19999;-66
2024/04/14 01:34:00;;;;;;;6.32;3.88;;;;;;;;;;5446602;26;19999;-66
2024/04/14 01:36:31;;;;;;;3.67;2.80;;;;;;;;;;5448340;26;20002;-65
2024/04/14 01:38:58;;;;;;;4.40;2.80;;;;;;;;;;5447112;26;20043;-65
2024/04/14 01:41:28;;;;;;;4.32;2.30;;;;;;;;;;5447185;26;19999;-67
2024/04/14 01:43:59;;;;;;;2.78;2.17;;;;;;;;;;5446581;26;20056;-66
2024/04/14 01:46:29;;;;;;;3.28;1.98;;;;;;;;;;5446850;26;19999;-65
2024/04/14 01:48:56;;;;;;;2.67;1.98;;;;;;;;;;5448418;26;20382;-66
2024/04/14 01:51:27;;;;;;;2.30;1.63;;;;;;;;;;5447740;26;20334;-66
2024/04/14 01:53:54;;;;;;;2.85;1.73;;;;;;;;;;5439553;26;20026;-66
2024/04/14 01:56:24;;;;;;;3.30;1.80;;;;;;;;;;5442443;26;20062;-66
2024/04/14 01:58:52;;;;;;;1.80;1.65;;;;;;;;;;5436407;26;20003;-66
2024/04/14 02:01:25;;;;;;;2.40;1.50;;;;;;;;;;5447702;26;20002;-66
2024/04/14 02:03:53;;;;;;;2.72;2.20;;;;;;;;;;5446334;26;20030;-66
2024/04/14 02:06:23;;;;;;;3.25;2.08;;;;;;;;;;5435228;26;20393;-66
2024/04/14 02:08:51;;;;;;;3.17;1.80;;;;;;;;;;5436982;26;20013;-67
2024/04/14 02:11:21;;;;;;;7.82;2.53;;;;;;;;;;5439776;26;20463;-66
2024/04/14 02:13:49;;;;;;;5.07;2.00;;;;;;;;;;5448143;26;20003;-65
2024/04/14 02:16:19;;;;;;;2.78;2.00;;;;;;;;;;5446786;26;20003;-66
2024/04/14 02:18:49;;;;;;;2.88;1.95;;;;;;;;;;5439301;26;20018;-66
2024/04/14 02:21:19;;;;;;;3.08;2.05;;;;;;;;;;5446527;26;20017;-66
2024/04/14 02:23:47;;;;;;;2.90;2.00;;;;;;;;;;5446876;26;20007;-65
2024/04/14 02:26:17;;;;;;;2.25;2.05;;;;;;;;;;5446441;26;20466;-65
2024/04/14 02:28:44;;;;;;;3.83;2.47;;;;;;;;;;5447359;26;20006;-66
2024/04/14 02:31:15;;;;;;;3.30;2.05;;;;;;;;;;5445028;26;20517;-67
2024/04/14 02:33:42;;;;;;;2.90;2.42;;;;;;;;;;5446713;26;20627;-66
2024/04/14 02:36:15;;;;;;;3.60;2.38;;;;;;;;;;5434195;26;19999;-66
2024/04/14 02:38:42;;;;;;;3.72;2.22;;;;;;;;;;5447399;26;20003;-66
2024/04/14 02:41:13;;;;;;;3.85;2.03;;;;;;;;;;5446239;26;20436;-66
2024/04/14 02:43:40;;;;;;;2.55;2.10;;;;;;;;;;5446202;26;20749;-67
2024/04/14 02:46:11;;;;;;;5.13;2.70;;;;;;;;;;5439929;26;20010;-66
2024/04/14 02:48:39;;;;;;;4.43;3.03;;;;;;;;;;5447339;26;20017;-66
2024/04/14 02:51:09;;;;;;;3.80;2.60;;;;;;;;;;5447076;26;20003;-65
2024/04/14 02:53:39;;;;;;;3.55;2.53;;;;;;;;;;5446921;26;20003;-66
2024/04/14 02:56:09;;;;;;;2.60;1.95;;;;;;;;;;5445697;26;20287;-67
2024/04/14 02:58:37;;;;;;;3.60;2.25;;;;;;;;;;5445310;26;20003;-67
2024/04/14 03:01:10;;;;;;;1.67;1.58;;;;;;;;;;5440227;26;19999;-66
2024/04/14 03:03:37;;;;;;;2.67;1.60;;;;;;;;;;5447312;26;20021;-66
2024/04/14 03:06:08;;;;;;;1.63;1.52;;;;;;;;;;5437030;26;20014;-66
2024/04/14 03:08:35;;;;;;;2.28;1.92;;;;;;;;;;5443884;26;20438;-66
2024/04/14 03:11:09;;;;;;;2.67;1.90;;;;;;;;;;5434034;26;20076;-69
2024/04/14 03:13:36;;;;;;;1.80;1.50;;;;;;;;;;5436854;26;20003;-65
2024/04/14 03:16:07;;;;;;;2.22;1.55;;;;;;;;;;5442165;26;20008;-66
2024/04/14 03:18:35;;;;;;;2.30;1.55;;;;;;;;;;5447198;26;20003;-66
2024/04/14 03:21:06;;;;;;;4.32;1.98;;;;;;;;;;5446436;26;20356;-66
2024/04/14 03:23:33;;;;;;;3.30;1.70;;;;;;;;;;5442510;26;20017;-66
2024/04/14 03:26:04;;;;;;;3.03;1.92;;;;;;;;;;5443258;26;19999;-66
2024/04/14 03:28:34;;;;;;;2.55;1.42;;;;;;;;;;5448178;26;20007;-67
2024/04/14 03:31:05;;;;;;;1.48;1.38;;;;;;;;;;5449228;26;20091;-66
2024/04/14 03:33:32;;;;;;;2.10;1.60;;;;;;;;;;5446452;26;20413;-66
2024/04/14 03:36:03;;;;;;;2.95;1.77;;;;;;;;;;5444144;26;20013;-66
2024/04/14 03:38:34;;;;;;;5.63;1.90;;;;;;;;;;5448387;26;20416;-65
2024/04/14 03:41:04;;;;;;;5.40;1.50;;;;;;;;;;5437535;26;20006;-66
2024/04/14 03:43:37;;;;;;;2.00;1.33;;;;;;;;;;5443618;26;20015;-66
2024/04/14 03:46:07;;;;;;;3.33;1.73;;;;;;;;;;5446773;26;20368;-67
2024/04/14 03:48:34;;;;;;;2.53;1.63;;;;;;;;;;5449270;26;20321;-66
2024/04/14 03:51:05;;;;;;;2.72;1.50;;;;;;;;;;5449181;26;20003;-67
2024/04/14 03:53:32;;;;;;;2.08;1.55;;;;;;;;;;5447074;26;20003;-66
2024/04/14 03:56:02;;;;;;;1.83;1.60;;;;;;;;;;5448549;26;20397;-66
2024/04/14 03:58:30;;;;;;;1.58;1.42;;;;;;;;;;5442316;26;20648;-67
2024/04/14 04:01:03;;;;;;;1.65;1.40;;;;;;;;;;5449030;26;20096;-66
2024/04/14 04:03:30;;;;;;;7.15;2.15;;;;;;;;;;5447362;26;20003;-66
2024/04/14 04:06:01;;;;;;;1.98;1.58;;;;;;;;;;5440562;26;20079;-66
2024/04/14 04:08:29;;;;;;;1.98;1.55;;;;;;;;;;5437126;26;20003;-66
2024/04/14 04:11:03;;;;;;;3.47;1.50;;;;;;;;;;5448292;26;20349;-66
2024/04/14 04:13:31;;;;;;;2.38;1.80;;;;;;;;;;5445039;26;20007;-65
2024/04/14 04:16:04;;;;;;;1.85;1.48;;;;;;;;;;5443701;26;20013;-67
2024/04/14 04:18:32;;;;;;;1.77;1.42;;;;;;;;;;5449070;26;20014;-65
2024/04/14 04:21:05;;;;;;;1.80;1.50;;;;;;;;;;5448556;26;19999;-66
2024/04/14 04:23:33;;;;;;;1.67;1.27;;;;;;;;;;5448058;26;20578;-67
2024/04/14 04:26:03;;;;;;;3.00;1.90;;;;;;;;;;5440989;26;20533;-66
2024/04/14 04:28:31;;;;;;;1.92;1.42;;;;;;;;;;5448680;26;20425;-66
2024/04/14 04:31:11;;;;;;;2.30;1.58;;;;;;;;;;5448598;26;20002;-67
2024/04/14 04:33:39;;;;;;;2.38;1.80;;;;;;;;;;5447167;26;20003;-67
2024/04/14 04:36:11;;;;;;;4.85;1.58;;;;;;;;;;5447869;26;20076;-66
2024/04/14 04:38:39;;;;;;;5.03;1.77;;;;;;;;;;5431253;26;20015;-66
2024/04/14 04:41:10;;;;;;;3.15;1.98;;;;;;;;;;5443361;26;20003;-66
2024/04/14 04:43:38;;;;;;;1.48;1.33;;;;;;;;;;5447470;26;20007;-67
2024/04/14 04:46:11;;;;;;;1.75;1.45;;;;;;;;;;5446871;26;20014;-67
2024/04/14 04:48:39;;;;;;;2.28;1.73;;;;;;;;;;5448630;26;20413;-67
2024/04/14 04:51:09;;;;;;;1.90;1.58;;;;;;;;;;5448081;26;20471;-66
2024/04/14 04:53:36;;;;;;;2.10;1.65;;;;;;;;;;5449162;26;19999;-66
2024/04/14 04:56:07;;;;;;;3.22;2.10;;;;;;;;;;5447305;26;20010;-66
2024/04/14 04:58:34;;;;;;;2.92;1.63;;;;;;;;;;5448184;26;20136;-66
2024/04/14 05:01:04;;;;;;;2.40;1.90;;;;;;;;;;5447364;26;20017;-66
2024/04/14 05:03:35;;;;;;;4.05;1.90;;;;;;;;;;5447994;26;20003;-66
2024/04/14 05:06:06;;;;;;;3.10;2.00;;;;;;;;;;5438915;26;20013;-67
2024/04/14 05:08:34;;;;;;;2.17;1.83;;;;;;;;;;5435878;26;20054;-66
2024/04/14 05:11:04;;;;;;;3.80;2.00;;;;;;;;;;5447457;26;20461;-66
2024/04/14 05:13:32;;;;;;;1.95;1.65;;;;;;;;;;5436918;26;20076;-66
2024/04/14 05:16:03;;;;;;;3.72;2.10;;;;;;;;;;5447925;26;19999;-66
2024/04/14 05:18:31;;;;;;;1.77;1.67;;;;;;;;;;5448017;26;20007;-66
2024/04/14 05:21:04;;;;;;;2.75;1.48;;;;;;;;;;5445087;26;19999;-70
2024/04/14 05:23:32;;;;;;;1.60;1.50;;;;;;;;;;5439103;26;20002;-66
2024/04/14 05:26:02;;;;;;;3.17;1.70;;;;;;;;;;5440430;26;20352;-66
2024/04/14 05:28:30;;;;;;;2.05;1.85;;;;;;;;;;5448465;26;19999;-65
2024/04/14 05:31:00;;;;;;;2.22;1.58;;;;;;;;;;5447724;26;20444;-66
2024/04/14 05:33:29;;;;;;;1.73;1.48;;;;;;;;;;5444006;26;20003;-66
2024/04/14 05:35:59;;;;;;;3.63;1.60;;;;;;;;;;5446797;26;20007;-67
2024/04/14 05:38:31;;;;;;;1.40;1.30;;;;;;;;;;5447665;26;20002;-66
2024/04/14 05:41:01;;;;;;;2.08;1.60;;;;;;;;;;5448000;26;20010;-66
2024/04/14 05:43:29;;;;;;;1.65;1.52;;;;;;;;;;5436270;26;20020;-67
2024/04/14 05:45:59;;;;;;;2.22;1.58;;;;;;;;;;5446250;26;20075;-69
2024/04/14 05:48:27;;;;;;;2.58;1.50;;;;;;;;;;5443861;26;20563;-67
2024/04/14 05:50:57;;;;;;;1.63;1.52;;;;;;;;;;5448184;26;19995;-66
2024/04/14 05:53:25;;;;;;;3.00;1.48;;;;;;;;;;5446807;26;20011;-66
2024/04/14 05:55:58;;;;;;;1.60;1.50;;;;;;;;;;5443692;26;19999;-67
2024/04/14 05:58:25;;;;;;;4.63;1.50;;;;;;;;;;5446849;26;20003;-66
2024/04/14 06:00:55;;;;;;;3.33;1.50;;;;;;;;;;5447220;26;20481;-65
2024/04/14 06:03:27;;;;;;;1.35;1.25;;;;;;;;;;5434494;26;20011;-65
2024/04/14 06:05:57;;;;;;;1.73;1.40;;;;;;;;;;5435068;26;19998;-66
2024/04/14 06:08:25;;;;;;;1.55;1.17;;;;;;;;;;5442922;26;20085;-66
2024/04/14 06:10:58;;;;;;;1.65;1.13;;;;;;;;;;5447220;26;20003;-68
2024/04/14 06:13:27;;;;;;;1.10;1.00;;;;;;;;;;5438892;26;20015;-65
2024/04/14 06:15:58;;;;;;;1.20;1.10;;;;;;;;;;5446432;26;19995;-65
2024/04/14 06:18:25;;;;;;;1.25;1.15;;;;;;;;;;5443326;26;20056;-67
2024/04/14 06:20:56;;;;;;;3.40;1.30;;;;;;;;;;5447285;26;20018;-67
2024/04/14 06:23:23;;;;;;;1.52;1.15;;;;;;;;;;5447235;26;20013;-66
2024/04/14 06:25:53;;;;;;;1.58;1.00;;;;;;;;;;5439718;26;20480;-66
2024/04/14 06:28:24;;;;;;;2.08;1.10;;;;;;;;;;5433390;26;20006;-65
2024/04/14 06:30:55;;;;;;;2.58;1.15;;;;;;;;;;5446710;26;19999;-65
2024/04/14 06:33:23;;;;;;;2.38;1.40;;;;;;;;;;5440158;26;20003;-65
2024/04/14 06:35:54;;;;;;;1.27;1.00;;;;;;;;;;5445786;26;19999;-66
2024/04/14 06:38:22;;;;;;;1.17;1.00;;;;;;;;;;5440177;26;20078;-66
2024/04/14 06:40:52;;;;;;;1.38;0.90;;;;;;;;;;5443749;26;19999;-66
2024/04/14 06:43:19;;;;;;;2.25;1.00;;;;;;;;;;5447003;26;20003;-66
2024/04/14 06:45:54;;;;;;;1.27;0.93;;;;;;;;;;5446286;26;20010;-65
2024/04/14 06:48:22;;;;;;;;;;;;;;;;;;5442994;26;20007;-64
2024/04/14 06:50:52;;;;;;;1.95;1.00;;;;;;;;;;5431907;26;19964;-63
2024/04/14 06:53:21;;;;;;;1.05;0.70;;;;;;;;;;5431768;26;20010;-63
2024/04/14 06:55:53;;;;;;;1.02;0.80;;;;;;;;;;5446797;26;20025;-65
2024/04/14 06:58:20;;;;;;;0.98;0.88;;;;;;;;;;5443384;26;20076;-64
2024/04/14 07:00:53;;;;;;;0.93;0.82;;;;;;;;;;5446316;26;19999;-67
2024/04/14 07:03:21;;;;;;;1.90;1.10;;;;;;;;;;5447079;26;20003;-65
2024/04/14 07:05:51;;;;;;;0.90;0.80;;;;;;;;;;5435434;26;20003;-64
2024/04/14 07:08:18;;;;;;;1.23;1.13;;;;;;;;;;5445013;26;20007;-65
2024/04/14 07:10:48;;;;;;;2.15;1.00;;;;;;;;;;5442652;26;20003;-65
2024/04/14 07:13:16;;;;;;;1.88;0.90;;;;;;;;;;5445749;26;19999;-65
2024/04/14 07:15:46;;;;;;;1.70;0.90;;;;;;;;;;5446052;26;20003;-64
2024/04/14 07:18:16;;;;;;;1.20;0.90;;;;;;;;;;5445974;26;20010;-64
2024/04/14 07:20:47;;;;;;;1.52;0.95;;;;;;;;;;5446051;26;20095;-65
2024/04/14 07:23:14;;;;;;;1.17;0.95;;;;;;;;;;5445536;26;20014;-65
2024/04/14 07:25:45;;;;;;;1.02;0.93;;;;;;;;;;5443032;26;20007;-65
2024/04/14 07:28:12;;;;;;;1.00;0.82;;;;;;;;;;5440191;26;19999;-63
2024/04/14 07:30:43;;;;;;;1.00;0.90;;;;;;;;;;5445867;26;20002;-63
2024/04/14 07:33:11;;;;;;;0.82;0.80;;;;;;;;;;5445772;26;20011;-64
2024/04/14 07:35:44;;;;;;;2.90;1.00;;;;;;;;;;5445324;26;20002;-65
2024/04/14 07:38:11;;;;;;;4.22;1.00;;;;;;;;;;5444832;26;20003;-64
2024/04/14 07:40:41;;;;;;;1.48;0.80;;;;;;;;;;5431900;26;20015;-64
2024/04/14 07:43:09;;;;;;;0.85;0.80;;;;;;;;;;5446219;26;20003;-64
2024/04/14 07:45:39;;;;;;;1.13;0.80;;;;;;;;;;5445444;26;20003;-64
2024/04/14 07:48:07;;;;;;;1.00;1.00;;;;;;;;;;5443006;26;20049;-64
2024/04/14 07:50:39;;;;;;;1.95;1.02;;;;;;;;;;5442936;26;20018;-64
2024/04/14 07:53:09;;;;;;;3.00;1.08;;;;;;;;;;5445396;26;19998;-62
2024/04/14 07:55:39;;;;;;;1.73;0.90;;;;;;;;;;5440991;26;20328;-63
2024/04/14 07:58:10;;;;;;;0.75;0.73;;;;;;;;;;5437809;26;19999;-65
2024/04/14 08:00:38;;;;;;;1.38;0.80;;;;;;;;;;5444866;26;20044;-65
2024/04/14 08:03:08;;;;;;;1.52;1.10;;;;;;;;;;5445172;26;20004;-64
2024/04/14 08:05:35;;;;;;;1.17;0.80;;;;;;;;;;5435852;26;20043;-65
2024/04/14 08:08:12;;;;;;;2.75;0.90;;;;;;;;;;5430450;26;20011;-63
2024/04/14 08:10:40;;;;;;;1.17;0.70;;;;;;;;;;5448649;26;20028;-65
2024/04/14 08:13:10;;;;;;;1.42;0.90;;;;;;;;;;5448124;26;20459;-64
2024/04/14 08:15:37;;;;;;;0.95;0.70;;;;;;;;;;5449145;26;20011;-63
2024/04/14 08:18:08;;;;;;;1.98;1.02;;;;;;;;;;5443661;26;20003;-63
2024/04/14 08:20:36;;;;;;;1.10;1.00;;;;;;;;;;5445376;26;20007;-65
2024/04/14 08:23:07;;;;;;;0.73;0.73;;;;;;;;;;5439801;26;20038;-64
2024/04/14 08:25:40;;;;;;;0.70;0.60;;;;;;;;;;5437448;26;20407;-65
2024/04/14 08:28:10;;;;;;;1.75;0.90;;;;;;;;;;5437932;26;20398;-65
2024/04/14 08:30:39;;;;;;;0.90;0.90;;;;;;;;;;5433132;26;20018;-63
2024/04/14 08:33:09;;;;;;;2.35;0.82;;;;;;;;;;5445275;26;20075;-65
2024/04/14 08:35:37;;;;;;;2.08;0.80;;;;;;;;;;5447697;26;20095;-65
2024/04/14 08:38:07;;;;;;;1.33;0.90;;;;;;;;;;5443879;26;19999;-63
2024/04/14 08:40:35;;;;;;;1.48;0.80;;;;;;;;;;5447366;26;20037;-62
2024/04/14 08:43:08;;;;;;;1.17;0.80;;;;;;;;;;5449176;26;20010;-62
2024/04/14 08:45:36;;;;;;;1.27;0.85;;;;;;;;;;5447009;26;20021;-63
2024/04/14 08:48:07;;;;;;;0.85;0.77;;;;;;;;;;5447527;26;20135;-65
2024/04/14 08:50:35;;;;;;;1.27;0.80;;;;;;;;;;5446117;26;20069;-63
2024/04/14 08:53:06;;;;;;;1.73;0.80;;;;;;;;;;5448728;26;19998;-61
2024/04/14 08:55:33;;;;;;;1.30;0.80;;;;;;;;;;5448476;26;20018;-63
2024/04/14 08:58:04;;;;;;;1.27;0.95;;;;;;;;;;5443419;26;19999;-63
2024/04/14 09:00:34;;;;;;;0.65;0.60;;;;;;;;;;5431675;26;20018;-66
2024/04/14 09:03:04;;;;;;;1.80;0.70;;;;;;;;;;5433011;26;20543;-63
2024/04/14 09:05:35;;;;;;;1.88;0.90;;;;;;;;;;5430193;26;20002;-63
2024/04/14 09:08:05;;;;;;;0.95;0.75;;;;;;;;;;5419780;26;20352;-63
2024/04/14 09:10:32;;;;;;;0.60;0.60;;;;;;;;;;5443094;26;20003;-64
2024/04/14 09:13:03;;;;;;;0.70;0.70;;;;;;;;;;5443263;26;20468;-64
2024/04/14 09:15:55;;;;;;;1.35;0.70;;;;;;;;;;5429297;26;19999;-63
2024/04/14 09:18:48;;;;;;;1.65;0.65;;;;;;;;;;5401904;26;20395;-63
2024/04/14 09:21:16;;;;;;;1.17;0.80;;;;;;;;;;5407036;26;20084;-63
2024/04/14 09:23:57;;;;;;;2.05;0.90;;;;;;;;;;5405045;26;20687;-62
2024/04/14 09:26:26;;;;;;;1.15;0.75;;;;;;;;;;5415468;26;20072;-63
2024/04/14 09:29:03;;;;;;;0.73;0.60;;;;;;;;;;5407911;26;20008;-62
2024/04/14 09:31:31;;;;;;;1.13;0.95;;;;;;;;;;5408418;26;20003;-63
2024/04/14 09:34:03;;;;;;;1.25;0.80;;;;;;;;;;5398521;26;19999;-63
2024/04/14 09:36:31;;;;;;;0.90;0.70;;;;;;;;;;5418734;26;20386;-63
2024/04/14 09:39:02;;;;;;;1.00;0.70;;;;;;;;;;5430703;26;20019;-64
2024/04/14 09:41:30;;;;;;;0.70;0.70;;;;;;;;;;5435039;26;20019;-64
2024/04/14 09:44:01;;;;;;;1.23;0.63;;;;;;;;;;5431414;26;20163;-64
2024/04/14 09:46:29;;;;;;;1.40;0.88;;;;;;;;;;5441799;26;20017;-65
2024/04/14 09:48:59;;;;;;;2.35;0.70;;;;;;;;;;5430520;26;20081;-64
2024/04/14 09:51:30;;;;;;;1.80;1.02;;;;;;;;;;5443744;26;20013;-64
2024/04/14 09:54:01;;;;;;;1.00;0.73;;;;;;;;;;5424881;26;20003;-64
2024/04/14 09:56:30;;;;;;;1.08;0.68;;;;;;;;;;5434520;26;20397;-65
2024/04/14 09:59:00;;;;;;;1.63;0.88;;;;;;;;;;5436692;26;19995;-65
2024/04/14 10:01:30;;;;;;;0.95;0.77;;;;;;;;;;5426979;26;20021;-65
2024/04/14 10:04:03;;;;;;;1.02;0.80;;;;;;;;;;5440520;26;20014;-64
2024/04/14 10:06:34;;;;;;;1.35;0.60;;;;;;;;;;5433620;26;20014;-64
2024/04/14 10:09:05;;;;;;;0.82;0.73;;;;;;;;;;5438096;26;20639;-65
2024/04/14 10:11:32;;;;;;;1.63;0.80;;;;;;;;;;5440972;26;20436;-65
2024/04/14 10:14:05;;;;;;;1.00;0.90;;;;;;;;;;5442380;26;20018;-65
2024/04/14 10:16:32;;;;;;;2.17;0.80;;;;;;;;;;5449593;25;20002;-66
2024/04/14 10:19:07;;;;;;;1.00;0.70;;;;;;;;;;5433415;26;20006;-65
2024/04/14 10:21:37;;;;;;;2.03;0.70;;;;;;;;;;5442093;26;20014;-64
2024/04/14 10:24:13;;;;;;;1.27;0.70;;;;;;;;;;5440170;26;20548;-64
2024/04/14 10:26:41;;;;;;;0.95;0.80;;;;;;;;;;5433481;26;20570;-65
2024/04/14 10:29:14;;;;;;;1.20;0.70;;;;;;;;;;5443621;26;20018;-64
2024/04/14 10:31:45;;;;;;;1.45;1.20;;;;;;;;;;5434294;26;20380;-65
2024/04/14 10:34:23;;;;;;;1.00;0.90;;;;;;;;;;5440530;26;20003;-65
2024/04/14 10:37:00;;;;;;;2.17;0.70;;;;;;;;;;5440680;26;20048;-65
2024/04/14 10:39:31;;;;;;;1.50;0.70;;;;;;;;;;5431809;26;20424;-65
2024/04/14 10:42:02;;;;;;;0.70;0.70;;;;;;;;;;5426703;26;20451;-66
2024/04/14 10:44:29;;;;;;;1.05;0.75;;;;;;;;;;5421651;26;20080;-65
2024/04/14 10:46:59;;;;;;;1.00;0.65;;;;;;;;;;5438251;26;20011;-64
2024/04/14 10:49:27;;;;;;;1.45;0.77;;;;;;;;;;5436162;26;20018;-64
2024/04/14 10:52:00;;;;;;;1.67;0.77;;;;;;;;;;5441270;26;20018;-65
2024/04/14 10:54:29;;;;;;;1.67;0.82;;;;;;;;;;5435555;26;20422;-64
2024/04/14 10:56:59;;;;;;;0.93;0.80;;;;;;;;;;5441111;26;20056;-65
2024/04/14 10:59:27;;;;;;;2.13;0.98;;;;;;;;;;5440649;26;20866;-64
2024/04/14 11:01:57;;;;;;;1.13;0.75;;;;;;;;;;5431816;26;19999;-64
2024/04/14 11:04:25;;;;;;;2.13;0.80;;;;;;;;;;5438551;26;20422;-64
2024/04/14 11:06:55;;;;;;;1.48;0.82;;;;;;;;;;5427990;26;20050;-64
2024/04/14 11:09:26;;;;;;;1.13;0.80;;;;;;;;;;5443558;26;20006;-64
2024/04/14 11:11:56;;;;;;;1.10;0.70;;;;;;;;;;5433171;26;20003;-65
2024/04/14 11:14:24;;;;;;;1.35;0.70;;;;;;;;;;5426278;26;20097;-64
2024/04/14 11:16:55;;;;;;;2.58;0.98;;;;;;;;;;5444188;26;20007;-64
2024/04/14 11:19:23;;;;;;;0.85;0.68;;;;;;;;;;5436143;26;20463;-65
2024/04/14 11:21:53;;;;;;;0.70;0.70;;;;;;;;;;5443246;26;20581;-64
2024/04/14 11:24:22;;;;;;;1.85;0.68;;;;;;;;;;5435005;26;20018;-63
2024/04/14 11:26:54;;;;;;;11.73;1.30;;;;;;;;;;5439840;26;20075;-63
2024/04/14 11:29:22;;;;;;;1.52;0.98;;;;;;;;;;5438783;26;20326;-62
2024/04/14 11:31:52;;;;;;;1.48;0.80;;;;;;;;;;5433290;26;19999;-62
2024/04/14 11:34:20;;;;;;;1.40;0.90;;;;;;;;;;5432908;26;20480;-64
2024/04/14 11:36:50;;;;;;;2.67;0.80;;;;;;;;;;5447886;26;20080;-65
2024/04/14 11:39:18;;;;;;;0.80;0.65;;;;;;;;;;5445191;26;20014;-65
2024/04/14 11:41:48;;;;;;;1.00;0.90;;;;;;;;;;5447077;26;20080;-64
2024/04/14 11:44:18;;;;;;;1.23;0.75;;;;;;;;;;5444272;26;20009;-65
2024/04/14 11:46:51;;;;;;;0.80;0.70;;;;;;;;;;5446739;26;20002;-65
2024/04/14 11:49:19;;;;;;;1.35;0.75;;;;;;;;;;5441014;26;20004;-64
2024/04/14 11:51:49;;;;;;;1.42;1.00;;;;;;;;;;5429661;26;20017;-65
2024/04/14 11:54:18;;;;;;;2.75;0.80;;;;;;;;;;5442335;26;20003;-66
2024/04/14 11:56:48;;;;;;;0.68;0.68;;;;;;;;;;5445225;26;20002;-64
2024/04/14 11:59:18;;;;;;;5.03;1.13;;;;;;;;;;5447662;26;19994;-64
2024/04/14 12:01:49;;;;;;;1.25;0.77;;;;;;;;;;5448226;26;20013;-65
2024/04/14 12:04:17;;;;;;;1.05;0.95;;;;;;;;;;5440220;26;20010;-65
2024/04/14 12:06:47;;;;;;;0.85;0.80;;;;;;;;;;5441381;26;20018;-64
2024/04/14 12:09:14;;;;;;;1.00;0.80;;;;;;;;;;5446864;26;20013;-64
2024/04/14 12:11:45;;;;;;;1.70;0.80;;;;;;;;;;5425439;26;20022;-62
2024/04/14 12:14:12;;;;;;;1.45;0.90;;;;;;;;;;5446469;26;20099;-63
2024/04/14 12:16:47;;;;;;;1.23;0.80;;;;;;;;;;5447034;26;20003;-62
2024/04/14 12:19:14;;;;;;;;;;;;;;;;;;5447097;26;20072;-62
2024/04/14 12:21:44;;;;;;;1.52;0.90;;;;;;;;;;5445991;26;20376;-65
2024/04/14 12:24:12;;;;;;;2.58;0.90;;;;;;;;;;5427863;26;20112;-63
2024/04/14 12:26:42;;;;;;;1.90;0.90;;;;;;;;;;5440149;26;20009;-63
2024/04/14 12:29:09;;;;;;;1.02;0.80;;;;;;;;;;5431267;26;20003;-63
2024/04/14 12:31:40;;;;;;;1.35;0.90;;;;;;;;;;5436907;26;20003;-64
2024/04/14 12:34:10;;;;;;;1.00;0.82;;;;;;;;;;5430150;26;20003;-65
2024/04/14 12:36:40;;;;;;;0.90;0.85;;;;;;;;;;5446027;26;20014;-63
2024/04/14 12:39:08;;;;;;;0.63;0.63;;;;;;;;;;5443691;26;20081;-63
2024/04/14 12:41:49;;;;;;;1.35;0.80;;;;;;;;;;5424590;26;20014;-64
2024/04/14 12:44:17;;;;;;;1.80;0.90;;;;;;;;;;5443665;26;20424;-63
2024/04/14 12:46:47;;;;;;;1.33;0.75;;;;;;;;;;5445881;26;19998;-64
2024/04/14 12:49:20;;;;;;;1.30;0.70;;;;;;;;;;5428912;26;20464;-64
2024/04/14 12:51:51;;;;;;;1.77;0.68;;;;;;;;;;5438706;26;20079;-64
2024/04/14 12:54:18;;;;;;;1.25;0.82;;;;;;;;;;5439398;26;20003;-63
2024/04/14 12:56:48;;;;;;;1.15;0.88;;;;;;;;;;5446493;26;20010;-63
2024/04/14 12:59:16;;;;;;;1.40;1.00;;;;;;;;;;5432759;26;20018;-63
2024/04/14 13:01:46;;;;;;;0.70;0.70;;;;;;;;;;5427210;26;19999;-62
2024/04/14 13:04:14;;;;;;;1.13;0.82;;;;;;;;;;5437919;26;20014;-65
2024/04/14 13:06:47;;;;;;;1.30;0.77;;;;;;;;;;5443591;26;20344;-63
2024/04/14 13:09:14;;;;;;;2.15;0.82;;;;;;;;;;5447606;26;20566;-63
2024/04/14 13:11:44;;;;;;;0.93;0.80;;;;;;;;;;5436038;26;20015;-62
2024/04/14 13:14:12;;;;;;;2.08;0.80;;;;;;;;;;5442236;26;20030;-63
2024/04/14 13:16:42;;;;;;;1.75;0.85;;;;;;;;;;5441943;26;20067;-63
2024/04/14 13:19:10;;;;;;;1.48;0.68;;;;;;;;;;5444070;26;20003;-64
2024/04/14 13:21:41;;;;;;;1.25;0.73;;;;;;;;;;5447430;26;20010;-64
2024/04/14 13:24:11;;;;;;;0.68;0.68;;;;;;;;;;5445940;26;20003;-63
2024/04/14 13:26:41;;;;;;;2.85;0.82;;;;;;;;;;5442962;26;19995;-65
2024/04/14 13:29:09;;;;;;;1.42;0.80;;;;;;;;;;5447516;26;20003;-64
2024/04/14 13:31:39;;;;;;;0.77;0.70;;;;;;;;;;5440278;26;19999;-64
2024/04/14 13:34:07;;;;;;;0.88;0.60;;;;;;;;;;5443296;26;19999;-64
2024/04/14 13:36:37;;;;;;;1.42;0.98;;;;;;;;;;5447230;26;20452;-64
2024/04/14 13:39:05;;;;;;;0.60;0.60;;;;;;;;;;5448228;26;20077;-64
2024/04/14 13:41:38;;;;;;;5.70;0.88;;;;;;;;;;5425585;26;20043;-64
2024/04/14 13:44:06;;;;;;;1.20;0.68;;;;;;;;;;5431222;26;20003;-65
2024/04/14 13:46:36;;;;;;;0.90;0.77;;;;;;;;;;5446754;26;19999;-64
2024/04/14 13:49:03;;;;;;;1.13;0.80;;;;;;;;;;5447920;26;20007;-65
2024/04/14 13:51:33;;;;;;;0.63;0.63;;;;;;;;;;5446510;26;19998;-64
2024/04/14 13:54:01;;;;;;;1.85;0.70;;;;;;;;;;5448184;26;20007;-64
2024/04/14 13:56:31;;;;;;;2.38;0.65;;;;;;;;;;5444946;26;20000;-63
2024/04/14 13:59:01;;;;;;;1.70;0.70;;;;;;;;;;5446569;26;20479;-64
2024/04/14 14:01:31;;;;;;;1.58;0.75;;;;;;;;;;5426092;26;19999;-64
2024/04/14 14:03:59;;;;;;;0.80;0.80;;;;;;;;;;5435706;26;20007;-64
2024/04/14 14:06:29;;;;;;;1.38;0.70;;;;;;;;;;5439611;26;20452;-64
2024/04/14 14:08:57;;;;;;;0.82;0.63;;;;;;;;;;5446839;26;20018;-64
2024/04/14 14:11:27;;;;;;;2.30;0.88;;;;;;;;;;5443594;26;20099;-65
2024/04/14 14:13:55;;;;;;;0.80;0.80;;;;;;;;;;5447486;26;20348;-64
2024/04/14 14:16:27;;;;;;;2.17;0.73;;;;;;;;;;5425564;26;20504;-64
2024/04/14 14:18:55;;;;;;;1.08;0.90;;;;;;;;;;5441641;26;20017;-64
2024/04/14 14:21:25;;;;;;;0.80;0.80;;;;;;;;;;5447061;26;20417;-65
2024/04/14 14:23:53;;;;;;;4.40;1.05;;;;;;;;;;5446575;26;20022;-65
2024/04/14 14:26:23;;;;;;;1.08;0.90;;;;;;;;;;5447224;26;20076;-65
2024/04/14 14:28:52;;;;;;;0.70;0.70;;;;;;;;;;5446526;26;20075;-64
2024/04/14 14:31:22;;;;;;;1.15;0.77;;;;;;;;;;5447149;26;19998;-65
2024/04/14 14:36:41;;;;;;;1.20;0.80;;;;;;;;;;5430291;26;20367;-64
2024/04/14 14:39:08;;;;;;;1.35;0.77;;;;;;;;;;5438637;26;20033;-64
2024/04/14 14:41:39;;;;;;;1.58;0.68;;;;;;;;;;5428076;26;20003;-65
2024/04/14 14:44:09;;;;;;;2.25;1.20;;;;;;;;;;5440665;26;20003;-64
2024/04/14 14:46:37;;;;;;;0.80;0.73;;;;;;;;;;5445934;26;20010;-66
2024/04/14 14:49:09;;;;;;;1.13;0.70;;;;;;;;;;5441745;26;19998;-64
2024/04/14 14:51:38;;;;;;;5.18;1.05;;;;;;;;;;5446989;26;20014;-64
2024/04/14 14:54:08;;;;;;;1.17;0.70;;;;;;;;;;5445914;26;20034;-65
2024/04/14 14:56:39;;;;;;;2.33;0.80;;;;;;;;;;5445479;26;20003;-65
2024/04/14 14:59:09;;;;;;;1.35;0.90;;;;;;;;;;5444583;26;20099;-65
2024/04/14 15:01:36;;;;;;;2.05;0.98;;;;;;;;;;5445402;26;19995;-65